Time;durP1;ratioP1;P1;durP2;ratioP2;P2;SDS_P1;SDS_P2;PMS_P1;PMS_P2;Temp;Humidity;BMP_temperature;BMP_pressure;BME280_temperature;BME280_humidity;BME280_pressure;Samples;Min_cycle;Max_cycle;Signal;HPM_P1;HPM_P2
2023/05/31 00:02:06;;;;;;;;;;;12.40;99.90;;;;;;5014536;28;20012;-73
2023/05/31 00:04:31;;;;;;;;;;;12.40;99.90;;;;;;5014651;28;20486;-74
2023/05/31 00:06:57;;;;;;;;;;;12.40;99.90;;;;;;4998257;28;19933;-74
2023/05/31 00:09:22;;;;;;;;;;;12.30;99.90;;;;;;5032732;28;20019;-73
2023/05/31 00:11:48;;;;;;;;;;;12.30;99.90;;;;;;5012315;28;20015;-73
2023/05/31 00:14:13;;;;;;;;;;;12.20;99.90;;;;;;5021684;28;19925;-73
2023/05/31 00:16:39;;;;;;;;;;;12.20;99.90;;;;;;5016459;28;19999;-74
2023/05/31 00:19:04;;;;;;;;;;;12.20;99.90;;;;;;5040980;28;20409;-73
2023/05/31 00:21:30;;;;;;;;;;;12.20;99.90;;;;;;4999746;28;20472;-73
2023/05/31 00:23:55;;;;;;;;;;;12.10;99.90;;;;;;5026148;28;19949;-73
2023/05/31 00:26:22;;;;;;;;;;;12.10;99.90;;;;;;5036341;28;19951;-74
2023/05/31 00:28:47;;;;;;;;;;;12.10;99.90;;;;;;5005919;28;19932;-73
2023/05/31 00:31:13;;;;;;;;;;;12.10;99.90;;;;;;4997818;28;19925;-73
2023/05/31 00:33:38;;;;;;;;;;;12.10;99.90;;;;;;5013726;28;19925;-73
2023/05/31 00:36:04;;;;;;;;;;;12.10;99.90;;;;;;5022615;28;19932;-73
2023/05/31 00:38:30;;;;;;;;;;;12.00;99.90;;;;;;5038185;28;19924;-73
2023/05/31 00:40:55;;;;;;;;;;;12.00;99.90;;;;;;5029659;28;19935;-73
2023/05/31 00:43:21;;;;;;;;;;;12.00;99.90;;;;;;5030356;28;19929;-74
2023/05/31 00:45:46;;;;;;;;;;;11.90;99.90;;;;;;5018214;28;19928;-73
2023/05/31 00:48:12;;;;;;;;;;;11.90;99.90;;;;;;5024491;28;20012;-73
2023/05/31 00:50:37;;;;;;;;;;;11.90;99.90;;;;;;5036638;28;19929;-74
2023/05/31 00:53:03;;;;;;;;;;;11.90;99.90;;;;;;5015105;28;19925;-73
2023/05/31 00:55:29;;;;;;;;;;;11.90;99.90;;;;;;5047773;28;20318;-73
2023/05/31 00:57:55;;;;;;;;;;;11.90;99.90;;;;;;5029838;28;20031;-73
2023/05/31 01:00:21;;;;;;;;;;;11.80;99.90;;;;;;5012819;28;19950;-73
2023/05/31 01:02:46;;;;;;;;;;;11.80;99.90;;;;;;5029987;28;19925;-73
2023/05/31 01:05:12;;;;;;;;;;;11.80;99.90;;;;;;5023475;28;19932;-73
2023/05/31 01:07:38;;;;;;;;;;;11.80;99.90;;;;;;5024860;28;19924;-73
2023/05/31 01:10:04;;;;;;;;;;;11.70;99.90;;;;;;5030015;28;20034;-73
2023/05/31 01:12:37;;;;;;;;;;;11.80;99.90;;;;;;5020393;28;20030;-74
2023/05/31 01:15:09;;;;;;;;;;;11.70;99.90;;;;;;5012133;28;20059;-73
2023/05/31 01:17:46;;;;;;;;;;;11.70;99.90;;;;;;5031005;28;19925;-73
2023/05/31 01:20:15;;;;;;;;;;;11.70;99.90;;;;;;5020672;28;19925;-73
2023/05/31 01:23:03;;;;;;;;;;;11.70;99.90;;;;;;5031085;28;19925;-74
2023/05/31 01:25:38;;;;;;;;;;;11.70;99.90;;;;;;5030941;28;20295;-73
2023/05/31 01:28:10;;;;;;;;;;;11.70;99.90;;;;;;5031053;28;19947;-73
2023/05/31 01:30:37;;;;;;;;;;;11.60;99.90;;;;;;5023860;28;20618;-73
2023/05/31 01:33:03;;;;;;;;;;;11.60;99.90;;;;;;5030505;28;20371;-73
2023/05/31 01:35:28;;;;;;;;;;;11.60;99.90;;;;;;5000000;28;19932;-73
2023/05/31 01:37:54;;;;;;;;;;;11.60;99.90;;;;;;5037142;28;20396;-73
2023/05/31 01:40:19;;;;;;;;;;;11.60;99.90;;;;;;5017117;28;19925;-73
2023/05/31 01:42:46;;;;;;;;;;;11.60;99.90;;;;;;5028554;28;19925;-73
2023/05/31 01:45:13;;;;;;;;;;;11.60;99.90;;;;;;5034258;28;20732;-73
2023/05/31 01:47:40;;;;;;;;;;;11.60;99.90;;;;;;4996617;28;20299;-73
2023/05/31 01:50:06;;;;;;;;;;;11.60;99.90;;;;;;5030500;28;19929;-73
2023/05/31 01:52:32;;;;;;;;;;;11.50;99.90;;;;;;5030883;28;19938;-73
2023/05/31 01:54:58;;;;;;;;;;;11.50;99.90;;;;;;5017148;28;20450;-74
2023/05/31 01:57:24;;;;;;;;;;;11.50;99.90;;;;;;5036970;28;19932;-73
2023/05/31 01:59:50;;;;;;;;;;;11.50;99.90;;;;;;5022605;28;19971;-74
2023/05/31 02:02:16;;;;;;;;;;;11.50;99.90;;;;;;5005456;28;20339;-73
2023/05/31 02:04:41;;;;;;;;;;;11.50;99.90;;;;;;5006408;28;19925;-73
2023/05/31 02:07:08;;;;;;;;;;;11.50;99.90;;;;;;5029491;28;19925;-73
2023/05/31 02:09:34;;;;;;;;;;;11.50;99.90;;;;;;5012476;28;19925;-73
2023/05/31 02:11:59;;;;;;;;;;;11.50;99.90;;;;;;5024416;28;20417;-73
2023/05/31 02:14:25;;;;;;;;;;;11.50;99.90;;;;;;4995436;28;20008;-73
2023/05/31 02:16:50;;;;;;;;;;;11.50;99.90;;;;;;5024658;28;19949;-73
2023/05/31 02:19:16;;;;;;;;;;;11.50;99.90;;;;;;5012834;28;20040;-73
2023/05/31 02:21:41;;;;;;;;;;;11.50;99.90;;;;;;5030029;28;20349;-73
2023/05/31 02:24:07;;;;;;;;;;;11.50;99.90;;;;;;5017490;28;19925;-74
2023/05/31 02:26:32;;;;;;;;;;;11.50;99.90;;;;;;5020247;28;19924;-73
2023/05/31 02:28:58;;;;;;;;;;;11.50;99.90;;;;;;5027304;28;20031;-73
2023/05/31 02:31:23;;;;;;;;;;;11.50;99.90;;;;;;5030084;28;19925;-73
2023/05/31 02:33:49;;;;;;;;;;;11.50;99.90;;;;;;5029782;28;20322;-73
2023/05/31 02:36:15;;;;;;;;;;;11.50;99.90;;;;;;5006040;28;20391;-73
2023/05/31 02:38:40;;;;;;;;;;;11.50;99.90;;;;;;5021583;28;19925;-73
2023/05/31 02:41:06;;;;;;;;;;;11.50;99.90;;;;;;5023830;28;19929;-73
2023/05/31 02:43:31;;;;;;;;;;;11.50;99.90;;;;;;5015056;28;20699;-73
2023/05/31 02:45:57;;;;;;;;;;;11.50;99.90;;;;;;5017570;28;19932;-73
2023/05/31 02:48:22;;;;;;;;;;;11.50;99.90;;;;;;5027465;28;19925;-74
2023/05/31 02:50:48;;;;;;;;;;;11.50;99.90;;;;;;4999038;28;19975;-73
2023/05/31 02:53:13;;;;;;;;;;;11.50;99.90;;;;;;5022301;28;19967;-73
2023/05/31 02:55:39;;;;;;;;;;;11.50;99.90;;;;;;5010378;28;19925;-74
2023/05/31 02:58:06;;;;;;;;;;;11.40;99.90;;;;;;5010779;28;19925;-73
2023/05/31 03:00:31;;;;;;;;;;;11.50;99.90;;;;;;5047189;28;20345;-74
2023/05/31 03:02:57;;;;;;;;;;;11.50;99.90;;;;;;5020638;28;19925;-73
2023/05/31 03:05:23;;;;;;;;;;;11.40;99.90;;;;;;5047142;28;19970;-73
2023/05/31 03:07:48;;;;;;;;;;;11.50;99.90;;;;;;5028458;28;19925;-74
2023/05/31 03:10:14;;;;;;;;;;;11.50;99.90;;;;;;5047264;28;19928;-73
2023/05/31 03:12:39;;;;;;;;;;;11.40;99.90;;;;;;5028569;28;19925;-74
2023/05/31 03:15:05;;;;;;;;;;;11.50;99.90;;;;;;5013129;28;19925;-73
2023/05/31 03:17:31;;;;;;;;;;;11.50;99.90;;;;;;5028243;28;20493;-73
2023/05/31 03:19:56;;;;;;;;;;;11.40;99.90;;;;;;5010298;28;19929;-73
2023/05/31 03:22:23;;;;;;;;;;;11.50;99.90;;;;;;5010648;28;19925;-73
2023/05/31 03:24:48;;;;;;;;;;;11.40;99.90;;;;;;5010050;28;20011;-73
2023/05/31 03:27:14;;;;;;;;;;;11.50;99.90;;;;;;5010180;28;20007;-74
2023/05/31 03:29:41;;;;;;;;;;;11.50;99.90;;;;;;5010172;28;20469;-74
2023/05/31 03:32:06;;;;;;;;;;;11.50;99.90;;;;;;5010731;28;19925;-73
2023/05/31 03:34:32;;;;;;;;;;;11.50;99.90;;;;;;5010023;28;20283;-74
2023/05/31 03:36:58;;;;;;;;;;;11.50;99.90;;;;;;5010150;28;19931;-74
2023/05/31 03:39:24;;;;;;;;;;;11.50;99.90;;;;;;5013357;28;19925;-73
2023/05/31 03:41:49;;;;;;;;;;;11.50;99.90;;;;;;5031540;28;19925;-74
2023/05/31 03:44:15;;;;;;;;;;;11.60;99.90;;;;;;5013905;28;19925;-74
2023/05/31 03:46:41;;;;;;;;;;;11.60;99.90;;;;;;5014021;28;19978;-74
2023/05/31 03:49:07;;;;;;;;;;;11.60;99.90;;;;;;5014599;28;19925;-73
2023/05/31 03:51:32;;;;;;;;;;;11.60;99.90;;;;;;4998239;28;20075;-74
2023/05/31 03:53:58;;;;;;;;;;;11.60;99.90;;;;;;5013375;28;19947;-73
2023/05/31 03:56:23;;;;;;;;;;;11.70;99.90;;;;;;5014446;28;19931;-73
2023/05/31 03:58:49;;;;;;;;;;;11.70;99.90;;;;;;5031727;28;20063;-74
2023/05/31 04:01:15;;;;;;;;;;;11.70;99.90;;;;;;5013809;28;19974;-74
2023/05/31 04:03:41;;;;;;;;;;;11.80;99.90;;;;;;5015392;28;20060;-74
2023/05/31 04:06:06;;;;;;;;;;;11.80;99.90;;;;;;5032274;28;20489;-74
2023/05/31 04:08:32;;;;;;;;;;;11.80;99.90;;;;;;5014672;28;19931;-74
2023/05/31 04:10:57;;;;;;;;;;;11.90;99.90;;;;;;4997863;28;20008;-74
2023/05/31 04:13:23;;;;;;;;;;;11.90;99.90;;;;;;4999171;28;20302;-74
2023/05/31 04:15:48;;;;;;;;;;;11.90;99.90;;;;;;5014501;28;19929;-73
2023/05/31 04:18:14;;;;;;;;;;;11.90;99.90;;;;;;5031303;28;20008;-74
2023/05/31 04:20:39;;;;;;;;;;;12.00;99.90;;;;;;5031626;28;20306;-74
2023/05/31 04:23:05;;;;;;;;;;;12.00;99.90;;;;;;5012505;28;20008;-74
2023/05/31 04:25:31;;;;;;;;;;;12.00;99.90;;;;;;5007651;28;19925;-73
2023/05/31 04:27:56;;;;;;;;;;;12.00;99.90;;;;;;5032136;28;20295;-74
2023/05/31 04:30:23;;;;;;;;;;;12.10;99.90;;;;;;5030360;28;20005;-74
2023/05/31 04:32:51;;;;;;;;;;;12.20;99.90;;;;;;5030322;28;19929;-74
2023/05/31 04:35:16;;;;;;;;;;;12.20;99.90;;;;;;5013198;28;19929;-74
2023/05/31 04:37:42;;;;;;;;;;;12.30;99.90;;;;;;5012766;28;20510;-74
2023/05/31 04:40:11;;;;;;;;;;;12.40;99.90;;;;;;5013069;28;19979;-74
2023/05/31 04:42:36;;;;;;;;;;;12.40;99.90;;;;;;5012394;28;19925;-74
2023/05/31 04:45:04;;;;;;;;;;;12.50;99.90;;;;;;4995421;28;19932;-74
2023/05/31 04:47:30;;;;;;;;;;;12.50;99.90;;;;;;5012433;28;20027;-73
2023/05/31 04:49:56;;;;;;;;;;;12.60;99.90;;;;;;5011948;28;19933;-74
2023/05/31 04:52:29;;;;;;;;;;;12.60;99.90;;;;;;5012565;28;19925;-74
2023/05/31 04:54:55;;;;;;;;;;;12.70;99.90;;;;;;5030102;28;19960;-74
2023/05/31 04:57:22;;;;;;;;;;;12.80;99.90;;;;;;5012411;28;20487;-74
2023/05/31 04:59:47;;;;;;;;;;;12.80;99.90;;;;;;5012043;28;20366;-74
2023/05/31 05:02:13;;;;;;;;;;;12.80;99.90;;;;;;4999672;28;19929;-74
2023/05/31 05:04:38;;;;;;;;;;;12.90;99.90;;;;;;4996662;28;19925;-73
2023/05/31 05:07:04;;;;;;;;;;;12.90;99.90;;;;;;5042050;28;19925;-74
2023/05/31 05:09:30;;;;;;;;;;;13.00;99.90;;;;;;5012141;28;20464;-73
2023/05/31 05:11:56;;;;;;;;;;;13.00;99.90;;;;;;5029991;28;19983;-71
2023/05/31 05:14:22;;;;;;;;;;;13.10;99.90;;;;;;5012638;28;19935;-71
2023/05/31 05:16:47;;;;;;;;;;;13.10;99.90;;;;;;5030663;28;19936;-72
2023/05/31 05:19:13;;;;;;;;;;;13.10;99.90;;;;;;5007580;28;19932;-73
2023/05/31 05:21:38;;;;;;;;;;;13.20;99.90;;;;;;4996385;28;19932;-73
2023/05/31 05:24:04;;;;;;;;;;;13.30;99.90;;;;;;5018238;28;19925;-73
2023/05/31 05:26:29;;;;;;;;;;;13.30;99.90;;;;;;5006632;28;20012;-73
2023/05/31 05:28:55;;;;;;;;;;;13.40;99.90;;;;;;5035474;28;20086;-73
2023/05/31 05:31:20;;;;;;;;;;;13.40;99.90;;;;;;5029633;28;20058;-73
2023/05/31 05:33:46;;;;;;;;;;;13.40;99.90;;;;;;5044766;28;20273;-73
2023/05/31 05:36:12;;;;;;;;;;;13.40;99.90;;;;;;5011180;28;20453;-73
2023/05/31 05:38:37;;;;;;;;;;;13.40;99.90;;;;;;5011549;28;19936;-74
2023/05/31 05:41:03;;;;;;;;;;;13.40;99.90;;;;;;5011897;28;19965;-73
2023/05/31 05:43:30;;;;;;;;;;;13.50;99.90;;;;;;5011272;28;20407;-73
2023/05/31 05:45:55;;;;;;;;;;;13.40;99.90;;;;;;5011872;28;19925;-74
2023/05/31 05:48:21;;;;;;;;;;;13.40;99.90;;;;;;5011911;28;19931;-73
2023/05/31 05:50:47;;;;;;;;;;;13.40;99.90;;;;;;5012182;28;19973;-73
2023/05/31 05:53:12;;;;;;;;;;;13.50;99.90;;;;;;4995454;28;19925;-73
2023/05/31 05:55:38;;;;;;;;;;;13.60;99.90;;;;;;5011261;28;20383;-74
2023/05/31 05:58:04;;;;;;;;;;;13.60;99.90;;;;;;5028722;28;19926;-73
2023/05/31 06:00:29;;;;;;;;;;;13.70;99.90;;;;;;5009930;28;19932;-73
2023/05/31 06:02:55;;;;;;;;;;;13.70;99.90;;;;;;5011973;28;19925;-74
2023/05/31 06:05:26;;;;;;;;;;;13.80;99.90;;;;;;5011941;28;19925;-74
2023/05/31 06:07:52;;;;;;;;;;;13.80;99.90;;;;;;4996178;28;19965;-74
2023/05/31 06:10:17;;;;;;;;;;;13.80;99.90;;;;;;5011909;28;19972;-73
2023/05/31 06:12:43;;;;;;;;;;;13.90;99.90;;;;;;5029943;28;19925;-73
2023/05/31 06:15:09;;;;;;;;;;;14.00;99.90;;;;;;5028379;28;19929;-73
2023/05/31 06:17:34;;;;;;;;;;;14.00;99.90;;;;;;5043204;28;20384;-73
2023/05/31 06:20:00;;;;;;;;;;;14.10;99.90;;;;;;5011579;28;20430;-74
2023/05/31 06:22:26;;;;;;;;;;;14.10;99.90;;;;;;5029609;28;19926;-74
2023/05/31 06:24:53;;;;;;;;;;;14.10;99.90;;;;;;5006863;28;19984;-73
2023/05/31 06:27:19;;;;;;;;;;;14.20;99.90;;;;;;5003518;28;19960;-74
2023/05/31 06:29:44;;;;;;;;;;;14.20;99.90;;;;;;5000404;28;19965;-74
2023/05/31 06:32:10;;;;;;;;;;;14.20;99.90;;;;;;5027562;28;20306;-74
2023/05/31 06:34:35;;;;;;;;;;;14.20;99.90;;;;;;5023832;28;20435;-73
2023/05/31 06:37:01;;;;;;;;;;;14.30;99.90;;;;;;5040453;28;19975;-73
2023/05/31 06:39:27;;;;;;;;;;;14.30;99.90;;;;;;5029670;28;19925;-74
2023/05/31 06:41:52;;;;;;;;;;;14.30;99.90;;;;;;5022425;28;19979;-74
2023/05/31 06:44:18;;;;;;;;;;;14.40;99.90;;;;;;5028687;28;20019;-73
2023/05/31 06:46:43;;;;;;;;;;;14.50;99.90;;;;;;5035087;28;20352;-74
2023/05/31 06:49:09;;;;;;;;;;;14.40;99.90;;;;;;5047596;28;19925;-74
2023/05/31 06:51:35;;;;;;;;;;;14.50;99.90;;;;;;5046837;28;20720;-74
2023/05/31 06:54:00;;;;;;;;;;;14.50;99.90;;;;;;5041496;28;19925;-73
2023/05/31 06:56:27;;;;;;;;;;;14.50;99.90;;;;;;5023964;28;20345;-73
2023/05/31 06:58:53;;;;;;;;;;;14.60;99.90;;;;;;5023862;28;19929;-74
2023/05/31 07:01:18;;;;;;;;;;;14.70;99.90;;;;;;5046483;28;19978;-74
2023/05/31 07:03:44;;;;;;;;;;;14.70;99.90;;;;;;5011127;28;20389;-74
2023/05/31 07:06:10;;;;;;;;;;;14.80;99.90;;;;;;5042138;28;19924;-74
2023/05/31 07:08:35;;;;;;;;;;;14.80;99.90;;;;;;5018127;28;19950;-74
2023/05/31 07:11:01;;;;;;;;;;;14.80;99.90;;;;;;5017763;28;19925;-74
2023/05/31 07:13:26;;;;;;;;;;;14.80;99.90;;;;;;5012988;28;19971;-74
2023/05/31 07:15:52;;;;;;;;;;;14.80;99.90;;;;;;4986041;28;19936;-74
2023/05/31 07:18:17;;;;;;;;;;;14.80;99.90;;;;;;5038856;28;20421;-74
2023/05/31 07:20:43;;;;;;;;;;;14.90;99.90;;;;;;5022082;28;19951;-74
2023/05/31 07:23:09;;;;;;;;;;;14.90;99.90;;;;;;5015833;28;19925;-74
2023/05/31 07:25:34;;;;;;;;;;;14.90;99.90;;;;;;4999814;28;19932;-73
2023/05/31 07:28:00;;;;;;;;;;;15.00;99.90;;;;;;5033588;28;20292;-73
2023/05/31 07:30:26;;;;;;;;;;;15.00;99.90;;;;;;5014978;28;19925;-74
2023/05/31 07:32:52;;;;;;;;;;;15.10;99.90;;;;;;5014821;28;19932;-74
2023/05/31 07:35:17;;;;;;;;;;;15.10;99.90;;;;;;5009125;28;19933;-74
2023/05/31 07:37:43;;;;;;;;;;;15.20;99.90;;;;;;5049715;28;19925;-73
2023/05/31 07:40:08;;;;;;;;;;;15.20;99.90;;;;;;5032451;28;19925;-74
2023/05/31 07:42:34;;;;;;;;;;;15.30;99.90;;;;;;5032626;28;20375;-74
2023/05/31 07:45:00;;;;;;;;;;;15.30;99.90;;;;;;5039333;28;20383;-74
2023/05/31 07:47:25;;;;;;;;;;;15.30;99.90;;;;;;5015178;28;19980;-73
2023/05/31 07:49:51;;;;;;;;;;;15.30;99.90;;;;;;5015539;28;19925;-74
2023/05/31 07:52:21;;;;;;;;;;;15.30;99.90;;;;;;4998039;28;20091;-74
2023/05/31 07:54:49;;;;;;;;;;;15.30;99.90;;;;;;5032687;28;19925;-73
2023/05/31 07:57:15;;;;;;;;;;;15.30;99.90;;;;;;5032642;28;20019;-74
2023/05/31 07:59:41;;;;;;;;;;;15.40;99.90;;;;;;5033146;28;19925;-74
2023/05/31 08:02:06;;;;;;;;;;;15.50;99.90;;;;;;5032217;28;19925;-74
2023/05/31 08:04:32;;;;;;;;;;;15.40;99.90;;;;;;5032587;28;19925;-74
2023/05/31 08:06:57;;;;;;;;;;;15.40;99.90;;;;;;5031461;28;19925;-74
2023/05/31 08:09:23;;;;;;;;;;;15.50;99.90;;;;;;5032206;28;20015;-74
2023/05/31 08:11:48;;;;;;;;;;;15.50;99.90;;;;;;5032225;28;19925;-74
2023/05/31 08:14:14;;;;;;;;;;;15.50;99.90;;;;;;5020125;28;19933;-74
2023/05/31 08:16:39;;;;;;;;;;;15.50;99.90;;;;;;5032629;28;19932;-74
2023/05/31 08:19:05;;;;;;;;;;;15.50;99.90;;;;;;5031425;28;19948;-73
2023/05/31 08:21:31;;;;;;;;;;;15.50;99.90;;;;;;5033549;28;19971;-74
2023/05/31 08:23:57;;;;;;;;;;;15.60;99.90;;;;;;5014930;28;20378;-74
2023/05/31 08:26:23;;;;;;;;;;;15.60;99.90;;;;;;5000212;28;20020;-74
2023/05/31 08:28:49;;;;;;;;;;;15.60;99.90;;;;;;5031752;28;20012;-74
2023/05/31 08:31:15;;;;;;;;;;;15.60;99.90;;;;;;5031499;28;20350;-74
2023/05/31 08:33:52;;;;;;;;;;;15.70;99.90;;;;;;5014086;28;20004;-74
2023/05/31 08:36:17;;;;;;;;;;;15.80;99.90;;;;;;5003907;28;19929;-74
2023/05/31 08:38:43;;;;;;;;;;;15.90;99.90;;;;;;5013642;28;20020;-74
2023/05/31 08:41:08;;;;;;;;;;;16.00;99.90;;;;;;5038432;28;20020;-74
2023/05/31 08:43:34;;;;;;;;;;;15.90;99.90;;;;;;5017225;28;19925;-74
2023/05/31 08:46:01;;;;;;;;;;;15.90;99.90;;;;;;5020664;28;20008;-74
2023/05/31 08:48:29;;;;;;;;;;;15.80;99.90;;;;;;5029820;28;19932;-74
2023/05/31 08:50:56;;;;;;;;;;;15.80;99.90;;;;;;5039153;28;19931;-74
2023/05/31 08:53:23;;;;;;;;;;;15.90;99.90;;;;;;5016931;28;20303;-74
2023/05/31 08:55:50;;;;;;;;;;;16.00;99.90;;;;;;5012399;28;19925;-74
2023/05/31 08:58:16;;;;;;;;;;;16.10;99.90;;;;;;4995937;28;19986;-74
2023/05/31 09:00:42;;;;;;;;;;;16.00;99.90;;;;;;5029885;28;20103;-74
2023/05/31 09:03:08;;;;;;;;;;;16.00;99.90;;;;;;5011797;28;20019;-74
2023/05/31 09:05:34;;;;;;;;;;;16.00;99.90;;;;;;5012810;28;19932;-74
2023/05/31 09:07:59;;;;;;;;;;;16.00;99.90;;;;;;5012318;28;19925;-74
2023/05/31 09:10:25;;;;;;;;;;;15.90;99.90;;;;;;5012774;28;20719;-74
2023/05/31 09:12:51;;;;;;;;;;;15.90;99.90;;;;;;5013009;28;19996;-74
2023/05/31 09:15:17;;;;;;;;;;;16.00;99.90;;;;;;5013398;28;19972;-74
2023/05/31 09:17:44;;;;;;;;;;;16.00;99.90;;;;;;5013405;28;20556;-74
2023/05/31 09:20:10;;;;;;;;;;;16.00;99.90;;;;;;5013384;28;20066;-74
2023/05/31 09:22:35;;;;;;;;;;;16.00;99.90;;;;;;5012992;28;20426;-74
2023/05/31 09:25:01;;;;;;;;;;;15.90;99.90;;;;;;5030468;28;19925;-73
2023/05/31 09:27:33;;;;;;;;;;;16.00;99.90;;;;;;5032129;28;19940;-74
2023/05/31 09:30:03;;;;;;;;;;;16.00;99.90;;;;;;5030841;28;20303;-74
2023/05/31 09:32:29;;;;;;;;;;;16.20;99.90;;;;;;5030621;28;20027;-74
2023/05/31 09:35:08;;;;;;;;;;;16.40;99.90;;;;;;5047778;28;20067;-74
2023/05/31 09:37:41;;;;;;;;;;;16.50;99.90;;;;;;5030597;28;19925;-74
2023/05/31 09:40:07;;;;;;;;;;;16.70;99.90;;;;;;5030321;28;20000;-74
2023/05/31 09:42:32;;;;;;;;;;;16.80;99.90;;;;;;5030591;28;20043;-74
2023/05/31 09:44:59;;;;;;;;;;;16.90;99.90;;;;;;5018567;28;20016;-74
2023/05/31 09:47:27;;;;;;;;;;;16.90;99.90;;;;;;5030405;28;19925;-74
2023/05/31 09:49:54;;;;;;;;;;;17.00;99.90;;;;;;5030414;28;20086;-74
2023/05/31 09:52:27;;;;;;;;;;;17.20;99.90;;;;;;5030405;28;20031;-74
2023/05/31 09:54:55;;;;;;;;;;;17.40;99.90;;;;;;5012945;28;19929;-74
2023/05/31 09:57:39;;;;;;;;;;;17.60;99.90;;;;;;5029237;28;19930;-75
2023/05/31 10:00:20;;;;;;;;;;;17.90;99.90;;;;;;5031134;28;19940;-74
2023/05/31 10:02:51;;;;;;;;;;;18.00;99.90;;;;;;5029851;28;20731;-74
2023/05/31 10:05:17;;;;;;;;;;;18.00;99.90;;;;;;5030522;28;20534;-74
2023/05/31 10:07:43;;;;;;;;;;;18.10;99.90;;;;;;5029508;28;20295;-75
2023/05/31 10:10:09;;;;;;;;;;;18.10;99.90;;;;;;5021975;28;19940;-74
2023/05/31 10:12:49;;;;;;;;;;;18.20;99.90;;;;;;5031685;28;20489;-74
2023/05/31 10:15:16;;;;;;;;;;;18.40;99.90;;;;;;5023415;28;19926;-74
2023/05/31 10:18:05;;;;;;;;;;;18.60;99.90;;;;;;5020071;28;19983;-75
2023/05/31 10:20:36;;;;;;;;;;;18.80;99.90;;;;;;5009055;28;19972;-74
2023/05/31 10:23:05;;;;;;;5.60;1.48;;;19.00;99.90;;;;;;5031863;28;20387;-75
2023/05/31 10:26:00;;;;;;;7.68;1.75;;;19.20;99.90;;;;;;5009486;28;20851;-75
2023/05/31 10:28:35;;;;;;;7.15;1.45;;;19.30;99.90;;;;;;5010058;28;20418;-74
2023/05/31 10:31:03;;;;;;;6.47;1.60;;;19.40;99.90;;;;;;5026636;28;20879;-75
2023/05/31 10:33:30;;;;;;;9.18;1.90;;;19.50;99.90;;;;;;5009957;28;20411;-75
2023/05/31 10:36:00;;;;;;;7.37;1.97;;;19.60;99.90;;;;;;5039240;28;20967;-74
2023/05/31 10:38:32;;;;;;;7.93;1.75;;;19.70;99.90;;;;;;5027598;28;20453;-74
2023/05/31 10:41:09;;;;;;;4.95;1.40;;;19.80;99.90;;;;;;5043376;28;20425;-74
2023/05/31 10:43:39;;;;;;;8.38;1.95;;;19.90;99.90;;;;;;5026396;28;20772;-74
2023/05/31 10:46:09;;;;;;;;;;;20.00;99.90;;;;;;5012707;28;20045;-74
2023/05/31 10:48:40;;;;;;;;;;;20.00;99.90;;;;;;5047255;28;20406;-74
2023/05/31 10:51:06;;;;;;;6.40;1.58;;;20.20;99.90;;;;;;5033124;28;20321;-75
2023/05/31 10:53:37;;;;;;;6.68;2.00;;;20.30;99.90;;;;;;5018307;28;20833;-75
2023/05/31 10:56:03;;;;;;;7.32;1.65;;;20.40;99.90;;;;;;5031602;28;20405;-75
2023/05/31 10:58:51;;;;;;;10.40;1.80;;;20.60;99.90;;;;;;5026881;28;20986;-75
2023/05/31 11:01:21;;;;;;;7.10;1.53;;;20.60;99.90;;;;;;5008544;28;20441;-74
2023/05/31 11:03:51;;;;;;;;;;;20.60;99.90;;;;;;5027942;28;20350;-75
2023/05/31 11:06:22;;;;;;;4.97;1.23;;;20.60;99.90;;;;;;5044695;28;19928;-75
2023/05/31 11:09:08;;;;;;;8.00;1.23;;;20.70;99.90;;;;;;5023343;28;20510;-74
2023/05/31 11:11:33;;;;;;;6.38;1.55;;;20.80;99.90;;;;;;5033694;28;20071;-75
2023/05/31 11:14:06;;;;;;;6.27;1.70;;;21.10;99.90;;;;;;5032833;28;20458;-75
2023/05/31 11:16:33;;;;;;;8.67;2.00;;;21.20;99.90;;;;;;5015429;28;20489;-75
2023/05/31 11:19:06;;;;;;;6.10;2.08;;;21.10;99.90;;;;;;5032595;28;20413;-75
2023/05/31 11:21:47;;;;;;;;;;;21.20;99.90;;;;;;5051414;28;20411;-75
2023/05/31 11:24:33;;;;;;;4.32;1.30;;;21.20;99.90;;;;;;5049983;28;20016;-75
2023/05/31 11:27:00;;;;;;;7.13;1.70;;;21.10;99.90;;;;;;5031060;28;20450;-75
2023/05/31 11:29:52;;;;;;;7.28;1.75;;;21.20;99.90;;;;;;5044295;28;20997;-74
2023/05/31 11:32:17;;;;;;;8.77;1.77;;;21.10;99.90;;;;;;5016245;28;20417;-75
2023/05/31 11:34:54;;;;;;;5.70;1.77;;;21.10;99.90;;;;;;5030941;28;20459;-75
2023/05/31 11:37:23;;;;;;;4.97;1.80;;;21.10;99.90;;;;;;5025541;28;20419;-75
2023/05/31 11:39:49;;;;;;;5.55;1.73;;;21.20;99.90;;;;;;5039372;28;20488;-75
2023/05/31 11:42:15;;;;;;;6.00;1.48;;;21.30;99.90;;;;;;5047596;28;20160;-75
2023/05/31 11:44:45;;;;;;;6.07;1.38;;;21.50;99.90;;;;;;5047993;28;20401;-75
2023/05/31 11:47:17;;;;;;;;;;;21.60;99.90;;;;;;5019750;28;20045;-75
2023/05/31 11:49:43;;;;;;;;;;;21.70;99.90;;;;;;5033022;28;20001;-75
2023/05/31 11:52:08;;;;;;;;;;;21.70;99.90;;;;;;5033110;28;19927;-75
2023/05/31 11:54:35;;;;;;;;;;;21.60;99.90;;;;;;5022197;28;20430;-75
2023/05/31 11:57:03;;;;;;;;;;;21.60;99.90;;;;;;5013776;28;20375;-75
2023/05/31 11:59:35;;;;;;;;;;;21.70;99.90;;;;;;5030929;28;20016;-75
2023/05/31 12:02:02;;;;;;;;;;;21.70;99.90;;;;;;5025362;28;19921;-75
2023/05/31 12:04:31;;;;;;;;;;;21.80;99.90;;;;;;5013882;28;19971;-75
2023/05/31 12:06:57;;;;;;;;;;;22.00;99.90;;;;;;5012941;28;19925;-75
2023/05/31 12:09:26;;;;;;;;;;;22.10;99.90;;;;;;5013363;28;19983;-75
2023/05/31 12:11:52;;;;;;;;;;;22.20;99.90;;;;;;5009838;28;19921;-75
2023/05/31 12:14:18;;;;;;;;;;;22.30;99.90;;;;;;5012973;28;20399;-75
2023/05/31 12:16:48;;;;;;;;;;;22.30;99.90;;;;;;5036691;28;19929;-75
2023/05/31 12:19:13;;;;;;;;;;;22.20;99.90;;;;;;5013469;28;19921;-75
2023/05/31 12:21:39;;;;;;;;;;;22.30;99.90;;;;;;5032281;28;20283;-75
2023/05/31 12:24:10;;;;;;;;;;;22.20;99.90;;;;;;5018314;28;20398;-75
2023/05/31 12:26:37;;;;;;;;;;;22.10;99.90;;;;;;5017666;28;19932;-75
2023/05/31 12:29:02;;;;;;;;;;;22.00;99.90;;;;;;5042187;28;19920;-75
2023/05/31 12:31:31;;;;;;;;;;;22.20;99.90;;;;;;5041632;28;19974;-75
2023/05/31 12:34:12;;;;;;;;;;;22.40;99.90;;;;;;5030476;28;19921;-75
2023/05/31 12:36:41;;;;;;;4.72;1.63;;;22.50;99.90;;;;;;5012191;28;19929;-75
2023/05/31 12:39:14;;;;;;;10.30;2.17;;;22.60;99.90;;;;;;5011080;28;20411;-75
2023/05/31 12:41:50;;;;;;;6.03;1.80;;;22.70;99.90;;;;;;5021871;28;20433;-75
2023/05/31 12:44:19;;;;;;;6.32;2.03;;;22.80;99.90;;;;;;5011307;28;20411;-75
2023/05/31 12:46:45;;;;;;;5.65;1.73;;;22.90;99.90;;;;;;5028606;28;20902;-75
2023/05/31 12:49:26;;;;;;;6.03;1.67;;;22.90;99.90;;;;;;5028779;28;20405;-75
2023/05/31 12:52:06;;;;;;;6.15;1.60;;;22.90;99.90;;;;;;5010552;28;21305;-75
2023/05/31 12:54:36;;;;;;;7.43;2.08;;;22.70;99.90;;;;;;5028741;28;20925;-75
2023/05/31 12:57:03;;;;;;;;;;;22.70;99.90;;;;;;5046444;28;20048;-75
2023/05/31 12:59:30;;;;;;;;;;;22.80;99.90;;;;;;5038444;28;19928;-75
2023/05/31 13:01:55;;;;;;;;;;;22.80;99.90;;;;;;5025037;28;19973;-72
2023/05/31 13:04:21;;;;;;;;;;;22.90;99.60;;;;;;5013168;28;19956;-73
2023/05/31 13:06:47;;;;;;;;;;;22.90;99.90;;;;;;5018826;28;19928;-72
2023/05/31 13:09:12;;;;;;;;;;;23.10;99.90;;;;;;5021157;28;19925;-72
2023/05/31 13:11:38;;;;;;;;;;;23.30;99.10;;;;;;5025646;28;19921;-72
2023/05/31 13:14:05;;;;;;;;;;;23.20;98.90;;;;;;5043999;28;19975;-73
2023/05/31 13:16:31;;;;;;;;;;;23.10;98.80;;;;;;5030081;28;20385;-72
2023/05/31 13:18:57;;;;;;;;;;;23.10;98.80;;;;;;5029395;28;19924;-72
2023/05/31 13:21:23;;;;;;;;;;;23.20;98.30;;;;;;5030701;28;19974;-72
2023/05/31 13:23:48;;;;;;;;;;;23.20;99.10;;;;;;5030772;28;20334;-72
2023/05/31 13:26:14;;;;;;;;;;;23.20;98.10;;;;;;5014428;28;20387;-72
2023/05/31 13:28:40;;;;;;;;;;;23.10;98.20;;;;;;5011935;28;19921;-73
2023/05/31 13:31:05;;;;;;;;;;;23.20;98.50;;;;;;5029836;28;19967;-75
2023/05/31 13:33:31;;;;;;;;;;;23.40;98.00;;;;;;5012048;28;19936;-75
2023/05/31 13:35:58;;;;;;;;;;;23.40;98.20;;;;;;5016011;28;19920;-75
2023/05/31 13:38:23;;;;;;;;;;;23.60;98.40;;;;;;5036985;28;19921;-75
2023/05/31 13:40:52;;;;;;;;;;;23.80;98.00;;;;;;5011074;28;20298;-75
2023/05/31 13:43:18;;;;;;;;;;;24.00;97.50;;;;;;5029508;28;20015;-75
2023/05/31 13:45:43;;;;;;;;;;;24.20;97.30;;;;;;5011734;28;19921;-75
2023/05/31 13:48:09;;;;;;;;;;;24.30;96.20;;;;;;5011950;28;19932;-75
2023/05/31 13:50:35;;;;;;;;;;;24.20;94.80;;;;;;5028938;28;19921;-75
2023/05/31 13:53:00;;;;;;;;;;;24.30;96.30;;;;;;5011258;28;19921;-75
2023/05/31 13:55:26;;;;;;;;;;;24.40;96.00;;;;;;4995359;28;19931;-75
2023/05/31 13:57:51;;;;;;;;;;;24.30;95.70;;;;;;5011889;28;19925;-74
2023/05/31 14:00:17;;;;;;;;;;;24.40;95.30;;;;;;5012353;28;20459;-75
2023/05/31 14:02:43;;;;;;;;;;;24.40;95.30;;;;;;5019698;28;19944;-75
2023/05/31 14:05:08;;;;;;;;;;;24.50;94.80;;;;;;4994548;28;20000;-75
2023/05/31 14:07:35;;;;;;;;;;;24.40;94.70;;;;;;5011982;28;20295;-75